• vieta
  • image
  • image
  • image
mod_vvisit_countermod_vvisit_countermod_vvisit_countermod_vvisit_countermod_vvisit_countermod_vvisit_counter
mod_vvisit_counterŠiandien298
mod_vvisit_counterVakar735
mod_vvisit_counterŠią savaitę1827
mod_vvisit_counterPraėjusią savaitę4954
mod_vvisit_counterŠį mėnesį12598
mod_vvisit_counterPraėjusį mėnesį17663
mod_vvisit_counterViso737490

Mes turime: 16 svečius, 3 bots online
Jūsų IP: 54.225.54.120
 , 
Šiandien: Rugs 20, 2017
Oro uostas / Įmonė

Apie įmonę

 

Savivaldybės įmonė Šiaulių oro uostas.

2003 m. lapkričio mėn. Šiaulių miesto savivaldybės tarybos sprendimu įsteigta Savivaldybės įmonė Šiaulių oro uostas, kuriai LR Vyriausybės nutarimu suteikta teisė aptarnauti civilinį susisiekimą kariniame Šiaulių aerodrome.

Įmonė yra ribotos civilinės atsakomybės viešasis juridinis asmuo.

Įmonės pagrindinė veikla – oro uosto eksploatavimas ir oro transporto paslaugos.

Svarbiausi veiklos uždaviniai – teikti viešąsias keleivių ir krovinių vežimo oro transportu paslaugas.

Įmonėje dirba 21 darbuotojas.


Įmonės struktūra:

 

Šiandien

Trečiadienis, 20 Rugsėjis 2017

Orų prognozė

Šiauliai °C
   

Orų prognozė aviacijai

[source: ADDS]
METAR
EYSA 200850Z 15006KT 120V180 CAVOK 14/11 Q1019 BLU NOSIG =
TAF
TAF EYSA 200808Z 2009/2018 18014KT 9000 BKN040 TEMPO 2011/2015 BKN025CB TEMPO 2015/2018 4000 SHRA BKN020CB =
SR / SS: 04:10 / 16:31 UTC (EYSA 2017-09-20)

Paieška

Lankytojai

Mes turime 19 svečius online

tic logo lt